Time;durP1;ratioP1;P1;durP2;ratioP2;P2;SDS_P1;SDS_P2;PMS_P1;PMS_P2;Temp;Humidity;BMP_temperature;BMP_pressure;BME280_temperature;BME280_humidity;BME280_pressure;Samples;Min_cycle;Max_cycle;Signal;HPM_P1;HPM_P2
2022/03/25 00:02:10;;;;;;;;;;;;;;;;;;5055606;28;19948;-91
2022/03/25 00:04:35;;;;;;;;;;;;;;;;;;5055723;28;19909;-90
2022/03/25 00:07:00;;;;;;;;;;;;;;;;;;5055680;28;19908;-90
2022/03/25 00:09:25;;;;;;;;;;;;;;;;;;5055651;28;19917;-90
2022/03/25 00:11:50;;;;;;;;;;;;;;;;;;5055636;28;19969;-90
2022/03/25 00:14:16;;;;;;;;;;;;;;;;;;5055618;28;19919;-90
2022/03/25 00:16:41;;;;;;;;;;;;;;;;;;5055492;28;20376;-90
2022/03/25 00:19:06;;;;;;;;;;;;;;;;;;5055490;28;19913;-90
2022/03/25 00:21:31;;;;;;;;;;;;;;;;;;5055419;28;19912;-90
2022/03/25 00:23:57;;;;;;;;;;;;;;;;;;5055542;28;19916;-90
2022/03/25 00:26:22;;;;;;;;;;;;;;;;;;5073536;28;19931;-90
2022/03/25 00:28:47;;;;;;;;;;;;;;;;;;5073161;28;19908;-90
2022/03/25 00:31:12;;;;;;;;;;;;;;;;;;5055129;28;19909;-90
2022/03/25 00:33:37;;;;;;;;;;;;;;;;;;5055474;28;20261;-90
2022/03/25 00:36:02;;;;;;;;;;;;;;;;;;5055436;28;19913;-90
2022/03/25 00:38:28;;;;;;;;;;;;;;;;;;5055306;28;19909;-90
2022/03/25 00:40:53;;;;;;;;;;;;;;;;;;5054836;28;19912;-90
2022/03/25 00:43:18;;;;;;;;;;;;;;;;;;5055952;28;19913;-90
2022/03/25 00:45:43;;;;;;;;;;;;;;;;;;5059327;28;20288;-90
2022/03/25 00:48:09;;;;;;;;;;;;;;;;;;5059412;28;19912;-90
2022/03/25 00:50:34;;;;;;;;;;;;;;;;;;5059258;28;19908;-90
2022/03/25 00:52:59;;;;;;;;;;;;;;;;;;5059261;28;20003;-90
2022/03/25 00:55:24;;;;;;;;;;;;;;;;;;5059033;28;20007;-90
2022/03/25 00:57:49;;;;;;;;;;;;;;;;;;5059635;28;19944;-90
2022/03/25 01:00:14;;;;;;;;;;;;;;;;;;5076697;28;19916;-90
2022/03/25 01:02:39;;;;;;;;;;;;;;;;;;5076922;28;19935;-90
2022/03/25 01:05:04;;;;;;;;;;;;;;;;;;5059170;28;19920;-90
2022/03/25 01:07:30;;;;;;;;;;;;;;;;;;5076951;28;19914;-90
2022/03/25 01:09:55;;;;;;;;;;;;;;;;;;5058744;28;19966;-90
2022/03/25 01:12:21;;;;;;;;;;;;;;;;;;5059280;28;20257;-90
2022/03/25 01:14:46;;;;;;;;;;;;;;;;;;5059071;28;19916;-90
2022/03/25 01:17:11;;;;;;;;;;;;;;;;;;5058630;28;19913;-90
2022/03/25 01:19:36;;;;;;;;;;;;;;;;;;5058539;28;19912;-90
2022/03/25 01:22:03;;;;;;;;;;;;;;;;;;5076621;28;19909;-90
2022/03/25 01:24:28;;;;;;;;;;;;;;;;;;5058686;28;19912;-90
2022/03/25 01:26:53;;;;;;;;;;;;;;;;;;5058641;28;19909;-90
2022/03/25 01:29:19;;;;;;;;;;;;;;;;;;5058417;28;19909;-90
2022/03/25 01:31:45;;;;;;;;;;;;;;;;;;5058641;28;19905;-90
2022/03/25 01:34:10;;;;;;;;;;;;;;;;;;5076265;28;19930;-90
2022/03/25 01:36:35;;;;;;;;;;;;;;;;;;5058470;28;19912;-90
2022/03/25 01:39:01;;;;;;;;;;;;;;;;;;5076136;28;20308;-90
2022/03/25 01:41:26;;;;;;;;;;;;;;;;;;5075999;28;19951;-90
2022/03/25 01:43:51;;;;;;;;;;;;;;;;;;5058356;28;19969;-90
2022/03/25 01:46:16;;;;;;;;;;;;;;;;;;5058188;28;20389;-90
2022/03/25 01:48:44;;;;;;;;;;;;;;;;;;5076304;28;19970;-90
2022/03/25 01:51:09;;;;;;;;;;;;;;;;;;5067823;28;19912;-90
2022/03/25 01:53:34;;;;;;;;;;;;;;;;;;5075677;28;19954;-90
2022/03/25 01:55:59;;;;;;;;;;;;;;;;;;5075939;28;19912;-90
2022/03/25 01:58:24;;;;;;;;;;;;;;;;;;5058117;28;19912;-90
2022/03/25 02:00:49;;;;;;;;;;;;;;;;;;5057851;28;19919;-90
2022/03/25 02:03:16;;;;;;;;;;;;;;;;;;5075877;28;20287;-90
2022/03/25 02:05:41;;;;;;;;;;;;;;;;;;5075647;28;20353;-90
2022/03/25 02:08:06;;;;;;;;;;;;;;;;;;5057728;28;19916;-90
2022/03/25 02:10:31;;;;;;;;;;;;;;;;;;5057605;28;19916;-90
2022/03/25 02:12:56;;;;;;;;;;;;;;;;;;5057646;28;19983;-90
2022/03/25 02:15:22;;;;;;;;;;;;;;;;;;5057582;28;19912;-90
2022/03/25 02:17:47;;;;;;;;;;;;;;;;;;5057640;28;19991;-90
2022/03/25 02:20:13;;;;;;;;;;;;;;;;;;5057147;28;19913;-90
2022/03/25 02:22:38;;;;;;;;;;;;;;;;;;5057476;28;20360;-90
2022/03/25 02:25:03;;;;;;;;;;;;;;;;;;5057621;28;19904;-90
2022/03/25 02:27:29;;;;;;;;;;;;;;;;;;5057419;28;19908;-90
2022/03/25 02:29:54;;;;;;;;;;;;;;;;;;5057559;28;19912;-90
2022/03/25 02:32:21;;;;;;;;;;;;;;;;;;5057414;28;20318;-90
2022/03/25 02:34:46;;;;;;;;;;;;;;;;;;5075297;28;19912;-90
2022/03/25 02:37:12;;;;;;;;;;;;;;;;;;5057489;28;19974;-90
2022/03/25 02:39:37;;;;;;;;;;;;;;;;;;5057138;28;19920;-90
2022/03/25 02:42:02;;;;;;;;;;;;;;;;;;5057315;28;19912;-89
2022/03/25 02:44:27;;;;;;;;;;;;;;;;;;5057446;28;20266;-90
2022/03/25 02:46:53;;;;;;;;;;;;;;;;;;5057196;28;19965;-90
2022/03/25 02:49:18;;;;;;;;;;;;;;;;;;5056924;28;20368;-90
2022/03/25 02:51:43;;;;;;;;;;;;;;;;;;5057224;28;19909;-90
2022/03/25 02:54:08;;;;;;;;;;;;;;;;;;5057325;28;20010;-90
2022/03/25 02:56:33;;;;;;;;;;;;;;;;;;5057001;28;20355;-90
2022/03/25 02:58:59;;;;;;;;;;;;;;;;;;5057100;28;20363;-90
2022/03/25 03:01:24;;;;;;;;;;;;;;;;;;5074673;28;20318;-90
2022/03/25 03:03:50;;;;;;;;;;;;;;;;;;5056987;28;19962;-90
2022/03/25 03:06:15;;;;;;;;;;;;;;;;;;5056217;28;19954;-90
2022/03/25 03:08:41;;;;;;;;;;;;;;;;;;5074568;28;19934;-90
2022/03/25 03:11:07;;;;;;;;;;;;;;;;;;5056787;28;19975;-89
2022/03/25 03:13:32;;;;;;;;;;;;;;;;;;5056737;28;19909;-90
2022/03/25 03:15:57;;;;;;;;;;;;;;;;;;5056563;28;19995;-90
2022/03/25 03:18:22;;;;;;;;;;;;;;;;;;5074609;28;20019;-90
2022/03/25 03:20:47;;;;;;;;;;;;;;;;;;5074171;28;20019;-90
2022/03/25 03:23:12;;;;;;;;;;;;;;;;;;5056607;28;19908;-90
2022/03/25 03:25:37;;;;;;;;;;;;;;;;;;5074282;28;20283;-90
2022/03/25 03:28:04;;;;;;;;;;;;;;;;;;5074479;28;19912;-90
2022/03/25 03:30:29;;;;;;;;;;;;;;;;;;5056085;28;19919;-90
2022/03/25 03:33:04;;;;;;;;;;;;;;;;;;5056312;28;19908;-90
2022/03/25 03:35:29;;;;;;;;;;;;;;;;;;5056669;28;19909;-90
2022/03/25 03:37:55;;;;;;;;;;;;;;;;;;5056172;28;19934;-90
2022/03/25 03:40:20;;;;;;;;;;;;;;;;;;5056100;28;19981;-90
2022/03/25 03:42:45;;;;;;;;;;;;;;;;;;5055815;28;20371;-90
2022/03/25 03:45:10;;;;;;;;;;;;;;;;;;5055917;28;20005;-90
2022/03/25 03:47:35;;;;;;;;;;;;;;;;;;5056059;28;19951;-90
2022/03/25 03:50:01;;;;;;;;;;;;;;;;;;5055694;28;20003;-90
2022/03/25 03:52:26;;;;;;;;;;;;;;;;;;5055861;28;19916;-89
2022/03/25 03:54:51;;;;;;;;;;;;;;;;;;5056265;28;19919;-90
2022/03/25 03:57:16;;;;;;;;;;;;;;;;;;5055621;28;19912;-90
2022/03/25 03:59:41;;;;;;;;;;;;;;;;;;5073404;28;19957;-90
2022/03/25 04:02:07;;;;;;;;;;;;;;;;;;5055776;28;19912;-90
2022/03/25 04:04:33;;;;;;;;;;;;;;;;;;5055322;28;20356;-90
2022/03/25 04:06:58;;;;;;;;;;;;;;;;;;5055196;28;20054;-90
2022/03/25 04:09:24;;;;;;;;;;;;;;;;;;5055839;28;19948;-90
2022/03/25 04:11:49;;;;;;;;;;;;;;;;;;5073585;28;19966;-90
2022/03/25 04:14:14;;;;;;;;;;;;;;;;;;5055406;28;19978;-90
2022/03/25 04:16:39;;;;;;;;;;;;;;;;;;5055088;28;20425;-90
2022/03/25 04:19:04;;;;;;;;;;;;;;;;;;5055370;28;20383;-90
2022/03/25 04:21:29;;;;;;;;;;;;;;;;;;5055867;28;19955;-90
2022/03/25 04:23:54;;;;;;;;;;;;;;;;;;5055473;28;19964;-90
2022/03/25 04:26:19;;;;;;;;;;;;;;;;;;5073125;28;19909;-90
2022/03/25 04:28:45;;;;;;;;;;;;;;;;;;5072986;28;19916;-90
2022/03/25 04:31:10;;;;;;;;;;;;;;;;;;5054761;28;19908;-89
2022/03/25 04:33:36;;;;;;;;;;;;;;;;;;5055077;28;19999;-90
2022/03/25 04:36:01;;;;;;;;;;;;;;;;;;5073278;28;19909;-90
2022/03/25 04:38:27;;;;;;;;;;;;;;;;;;5055294;28;19915;-91
2022/03/25 04:40:52;;;;;;;;;;;;;;;;;;5055108;28;19920;-90
2022/03/25 04:43:17;;;;;;;;;;;;;;;;;;5055147;28;19908;-90
2022/03/25 04:45:42;;;;;;;;;;;;;;;;;;5054954;28;19919;-90
2022/03/25 04:48:10;;;;;;;;;;;;;;;;;;5055057;28;19919;-90
2022/03/25 04:50:35;;;;;;;;;;;;;;;;;;5054188;28;19921;-90
2022/03/25 04:53:01;;;;;;;;;;;;;;;;;;5054940;28;20003;-89
2022/03/25 04:55:26;;;;;;;;;;;;;;;;;;5072772;28;20313;-90
2022/03/25 04:57:51;;;;;;;;;;;;;;;;;;5072746;28;19915;-90
2022/03/25 05:00:16;;;;;;;;;;;;;;;;;;5054380;28;20284;-89
2022/03/25 05:02:41;;;;;;;;;;;;;;;;;;5054912;28;19909;-89
2022/03/25 05:05:06;;;;;;;;;;;;;;;;;;5054996;28;19909;-89
2022/03/25 05:07:31;;;;;;;;;;;;;;;;;;5054983;28;19951;-90
2022/03/25 05:09:56;;;;;;;;;;;;;;;;;;5054079;28;19971;-89
2022/03/25 05:12:21;;;;;;;;;;;;;;;;;;5054728;28;20378;-89
2022/03/25 05:14:47;;;;;;;;;;;;;;;;;;5054764;28;20003;-90
2022/03/25 05:17:12;;;;;;;;;;;;;;;;;;5054767;28;20031;-90
2022/03/25 05:19:37;;;;;;;;;;;;;;;;;;5054283;28;19916;-90
2022/03/25 05:22:02;;;;;;;;;;;;;;;;;;5072394;28;19931;-90
2022/03/25 05:24:27;;;;;;;;;;;;;;;;;;5054485;28;20398;-89
2022/03/25 05:26:53;;;;;;;;;;;;;;;;;;5054545;28;19909;-90
2022/03/25 05:29:18;;;;;;;;;;;;;;;;;;5055117;28;19908;-90
2022/03/25 05:31:43;;;;;;;;;;;;;;;;;;5058262;28;20364;-90
2022/03/25 05:34:08;;;;;;;;;;;;;;;;;;5075782;28;19908;-89
2022/03/25 05:36:33;;;;;;;;;;;;;;;;;;5076062;28;19909;-90
2022/03/25 05:38:58;;;;;;;;;;;;;;;;;;5058012;28;19943;-90
2022/03/25 05:41:24;;;;;;;;;;;;;;;;;;5058247;28;20192;-90
2022/03/25 05:43:49;;;;;;;;;;;;;;;;;;5058410;28;19915;-90
2022/03/25 05:46:14;;;;;;;;;;;;;;;;;;5058190;28;20368;-89
2022/03/25 05:48:39;;;;;;;;;;;;;;;;;;5058199;28;19909;-90
2022/03/25 05:51:04;;;;;;;;;;;;;;;;;;5057523;28;20364;-89
2022/03/25 05:53:30;;;;;;;;;;;;;;;;;;5058277;28;19955;-90
2022/03/25 05:55:55;;;;;;;;;;;;;;;;;;5057973;28;20011;-90
2022/03/25 05:58:20;;;;;;;;;;;;;;;;;;5058068;28;20375;-89
2022/03/25 06:00:45;;;;;;;;;;;;;;;;;;5057189;28;19912;-90
2022/03/25 06:03:10;;;;;;;;;;;;;;;;;;5057704;28;19954;-89
2022/03/25 06:05:36;;;;;;;;;;;;;;;;;;5058017;28;19962;-89
2022/03/25 06:08:01;;;;;;;;;;;;;;;;;;5057929;28;19915;-90
2022/03/25 06:10:26;;;;;;;;;;;;;;;;;;5057568;28;20091;-89
2022/03/25 06:12:51;;;;;;;;;;;;;;;;;;5057886;28;20399;-90
2022/03/25 06:15:16;;;;;;;;;;;;;;;;;;5075115;28;19909;-89
2022/03/25 06:17:42;;;;;;;;;;;;;;;;;;5057777;28;19908;-90
2022/03/25 06:20:07;;;;;;;;;;;;;;;;;;5057310;28;19913;-90
2022/03/25 06:22:33;;;;;;;;;;;;;;;;;;5057498;28;19931;-90
2022/03/25 06:24:58;;;;;;;;;;;;;;;;;;5057551;28;19924;-90
2022/03/25 06:27:23;;;;;;;;;;;;;;;;;;5057505;28;19909;-89
2022/03/25 06:29:48;;;;;;;;;;;;;;;;;;5057001;28;19909;-90
2022/03/25 06:32:13;;;;;;;;;;;;;;;;;;5056927;28;20419;-89
2022/03/25 06:34:38;;;;;;;;;;;;;;;;;;5057043;28;19915;-89
2022/03/25 06:37:04;;;;;;;;;;;;;;;;;;5057158;28;20003;-90
2022/03/25 06:39:29;;;;;;;;;;;;;;;;;;5056496;28;19922;-89
2022/03/25 06:41:54;;;;;;;;;;;;;;;;;;5056981;28;20412;-90
2022/03/25 06:44:19;;;;;;;;;;;;;;;;;;5057130;28;19908;-90
2022/03/25 06:46:44;;;;;;;;;;;;;;;;;;5056562;28;19975;-89
2022/03/25 06:49:09;;;;;;;;;;;;;;;;;;5056355;28;19960;-89
2022/03/25 06:51:34;;;;;;;;;;;;;;;;;;5058181;28;19966;-90
2022/03/25 06:53:59;;;;;;;;;;;;;;;;;;5077566;28;19958;-90
2022/03/25 06:56:25;;;;;;;;;;;;;;;;;;5076050;28;19907;-90
2022/03/25 06:58:50;;;;;;;;;;;;;;;;;;5097548;28;20372;-89
2022/03/25 07:01:16;;;;;;;;;;;;;;;;;;5093982;28;20330;-90
2022/03/25 07:03:41;;;;;;;;;;;;;;;;;;5075422;28;20379;-89
2022/03/25 07:06:06;;;;;;;;;;;;;;;;;;5064857;28;20010;-87
2022/03/25 07:08:31;;;;;;;;;;;;;;;;;;5075716;28;19916;-87
2022/03/25 07:10:59;;;;;;;;;;;;;;;;;;5070327;28;19963;-87
2022/03/25 07:13:24;;;;;;;;;;;;;;;;;;5060143;28;19919;-86
2022/03/25 07:15:49;;;;;;;;;;;;;;;;;;5056735;28;20249;-86
2022/03/25 07:18:14;;;;;;;;;;;;;;;;;;5076674;28;20002;-87
2022/03/25 07:20:39;;;;;;;;;;;;;;;;;;5080247;28;19920;-87
2022/03/25 07:23:04;;;;;;;;;;;;;;;;;;5076885;28;19920;-87
2022/03/25 07:25:31;;;;;;;;;;;;;;;;;;5056655;28;19908;-87
2022/03/25 07:27:56;;;;;;;;;;;;;;;;;;5086477;28;19947;-87
2022/03/25 07:30:21;;;;;;;;;;;;;;;;;;5093846;28;19951;-87
2022/03/25 07:32:46;;;;;;;;;;;;;;;;;;5099858;28;20348;-87
2022/03/25 07:35:12;;;;;;;;;;;;;;;;;;5073229;28;19922;-86
2022/03/25 07:37:37;;;;;;;;;;;;;;;;;;5076941;28;19916;-87
2022/03/25 07:40:02;;;;;;;;;;;;;;;;;;5075473;28;19970;-87
2022/03/25 07:42:27;;;;;;;;;;;;;;;;;;5075384;28;19908;-86
2022/03/25 07:44:52;;;;;;;;;;;;;;;;;;5092940;28;19955;-87
2022/03/25 07:47:18;;;;;;;;;;;;;;;;;;5076276;28;19959;-87
2022/03/25 07:49:43;;;;;;;;;;;;;;;;;;5075195;28;19912;-86
2022/03/25 07:52:08;;;;;;;;;;;;;;;;;;5080213;28;20589;-87
2022/03/25 07:54:33;;;;;;;;;;;;;;;;;;5087031;28;19995;-87
2022/03/25 07:56:58;;;;;;;;;;;;;;;;;;5079968;28;19912;-87
2022/03/25 07:59:23;;;;;;;;;;;;;;;;;;5071436;28;19916;-87
2022/03/25 08:01:49;;;;;;;;;;;;;;;;;;5076046;28;19916;-87
2022/03/25 08:04:14;;;;;;;;;;;;;;;;;;5076673;28;19916;-88
2022/03/25 08:06:40;;;;;;;;;;;;;;;;;;5076859;28;20309;-88
2022/03/25 08:09:05;;;;;;;;;;;;;;;;;;5094019;28;19923;-87
2022/03/25 08:11:31;;;;;;;;;;;;;;;;;;5075385;28;19999;-87
2022/03/25 08:13:56;;;;;;;;;;;;;;;;;;5075933;28;19998;-87
2022/03/25 08:16:21;;;;;;;;;;;;;;;;;;5079072;28;19914;-87
2022/03/25 08:18:46;;;;;;;;;;;;;;;;;;5076274;28;19919;-87
2022/03/25 08:21:11;;;;;;;;;;;;;;;;;;5086986;28;19918;-87
2022/03/25 08:29:04;;;;;;;;;;;;;;;;;;5105329;28;20378;-87
2022/03/25 08:31:29;;;;;;;;;;;;;;;;;;5082841;28;19917;-87
2022/03/25 08:33:54;;;;;;;;;;;;;;;;;;5076274;28;19938;-87
2022/03/25 08:36:19;;;;;;;;;;;;;;;;;;5093600;28;19947;-87
2022/03/25 08:38:44;;;;;;;;;;;;;;;;;;5074901;28;19944;-87
2022/03/25 08:41:10;;;;;;;;;;;;;;;;;;5092059;28;19994;-87
2022/03/25 08:43:35;;;;;;;;;;;;;;;;;;5094644;28;20344;-87
2022/03/25 08:46:00;;;;;;;;;;;;;;;;;;5094451;28;19964;-88
2022/03/25 08:48:25;;;;;;;;;;;;;;;;;;5109520;28;19960;-87
2022/03/25 08:50:50;;;;;;;;;;;;;;;;;;5075041;28;20003;-87
2022/03/25 08:53:16;;;;;;;;;;;;;;;;;;5075537;28;19909;-88
2022/03/25 08:55:41;;;;;;;;;;;;;;;;;;5075275;28;20325;-87
2022/03/25 08:58:06;;;;;;;;;;;;;;;;;;5075239;28;20011;-87
2022/03/25 09:00:31;;;;;;;;;;;;;;;;;;5077904;28;20003;-87
2022/03/25 09:02:57;;;;;;;;;;;;;;;;;;5079221;28;19918;-86
2022/03/25 09:05:22;;;;;;;;;;;;;;;;;;5079094;28;19943;-86
2022/03/25 09:07:47;;;;;;;;;;;;;;;;;;5085721;28;21667;-87
2022/03/25 09:10:14;;;;;;;;;;;;;;;;;;5090759;28;19915;-88
2022/03/25 09:12:39;;;;;;;;;;;;;;;;;;5079786;28;19915;-87
2022/03/25 09:15:04;;;;;;;;;;;;;;;;;;5079487;28;19908;-88
2022/03/25 09:17:30;;;;;;;;;;;;;;;;;;5087340;28;19912;-87
2022/03/25 09:19:55;;;;;;;;;;;;;;;;;;5085093;28;19916;-88
2022/03/25 09:22:20;;;;;;;;;;;;;;;;;;5086367;28;20279;-87
2022/03/25 09:24:45;;;;;;;;;;;;;;;;;;5084314;28;19912;-87
2022/03/25 09:27:10;;;;;;;;;;;;;;;;;;5067463;28;19974;-88
2022/03/25 09:29:35;;;;;;;;;;;;;;;;;;5105236;28;19927;-87
2022/03/25 09:32:00;;;;;;;;;;;;;;;;;;5078825;28;19912;-88
2022/03/25 09:37:09;;;;;;;;;;;;;;;;;;5097939;28;19919;-87
2022/03/25 09:39:34;;;;;;;;;;;;;;;;;;5079043;28;19912;-88
2022/03/25 09:42:00;;;;;;;;;;;;;;;;;;5079078;28;19943;-88
2022/03/25 09:44:25;;;;;;;;;;;;;;;;;;5079034;28;19951;-88
2022/03/25 09:46:50;;;;;;;;;;;;;;;;;;5078835;28;19922;-88
2022/03/25 09:49:16;;;;;;;;;;;;;;;;;;5078924;28;19908;-88
2022/03/25 09:51:41;;;;;;;;;;;;;;;;;;5079940;28;19912;-88
2022/03/25 09:54:06;;;;;;;;;;;;;;;;;;5078272;28;19923;-88
2022/03/25 09:56:31;;;;;;;;;;;;;;;;;;5078746;28;19988;-88
2022/03/25 09:58:56;;;;;;;;;;;;;;;;;;5078287;28;19908;-88
2022/03/25 10:01:21;;;;;;;;;;;;;;;;;;5084597;28;19915;-88
2022/03/25 10:03:46;;;;;;;;;;;;;;;;;;5099028;28;20356;-88
2022/03/25 10:06:11;;;;;;;;;;;;;;;;;;5099053;28;19907;-88
2022/03/25 10:08:38;;;;;;;;;;;;;;;;;;5083493;28;19912;-87
2022/03/25 10:11:03;;;;;;;;;;;;;;;;;;5079095;28;19919;-88
2022/03/25 10:13:28;;;;;;;;;;;;;;;;;;5093802;28;19911;-88
2022/03/25 10:15:53;;;;;;;;;;;;;;;;;;5080107;28;19916;-88
2022/03/25 10:18:19;;;;;;;;;;;;;;;;;;5079784;28;20291;-88
2022/03/25 10:20:44;;;;;;;;;;;;;;;;;;5083242;28;19919;-88
2022/03/25 10:23:09;;;;;;;;;;;;;;;;;;5096784;28;19943;-88
2022/03/25 10:25:34;;;;;;;;;;;;;;;;;;5098572;28;19994;-88
2022/03/25 10:27:59;;;;;;;;;;;;;;;;;;5094289;28;19920;-88
2022/03/25 10:30:25;;;;;;;;;;;;;;;;;;5112784;28;19915;-88
2022/03/25 10:32:50;;;;;;;;;;;;;;;;;;5098462;28;19915;-88
2022/03/25 10:35:15;;;;;;;;;;;;;;;;;;5084734;28;19965;-88
2022/03/25 10:37:40;;;;;;;;;;;;;;;;;;5078048;28;19934;-88
2022/03/25 10:40:06;;;;;;;;;;;;;;;;;;5096116;28;19937;-88
2022/03/25 10:42:31;;;;;;;;;;;;;;;;;;5078067;28;19908;-88
2022/03/25 10:44:56;;;;;;;;;;;;;;;;;;5078253;28;19912;-88
2022/03/25 10:47:23;;;;;;;;;;;;;;;;;;5077807;28;19920;-88
2022/03/25 10:49:48;;;;;;;;;;;;;;;;;;5077858;28;19908;-88
2022/03/25 10:52:13;;;;;;;;;;;;;;;;;;5078478;28;19916;-88
2022/03/25 10:54:38;;;;;;;;;;;;;;;;;;5077806;28;20340;-88
2022/03/25 10:57:04;;;;;;;;;;;;;;;;;;5077618;28;19954;-88
2022/03/25 10:59:29;;;;;;;;;;;;;;;;;;5077560;28;20023;-88
2022/03/25 11:01:54;;;;;;;;;;;;;;;;;;5078402;28;19912;-88
2022/03/25 11:04:19;;;;;;;;;;;;;;;;;;5097726;28;20355;-88
2022/03/25 11:06:44;;;;;;;;;;;;;;;;;;5115982;28;19908;-88
2022/03/25 11:09:09;;;;;;;;;;;;;;;;;;5115891;28;19912;-88
2022/03/25 11:11:34;;;;;;;;;;;;;;;;;;5092981;28;19912;-87
2022/03/25 11:13:59;;;;;;;;;;;;;;;;;;5067484;28;19913;-88
2022/03/25 11:16:24;;;;;;;;;;;;;;;;;;5075158;28;19912;-88
2022/03/25 11:18:50;;;;;;;;;;;;;;;;;;5057277;28;20397;-88
2022/03/25 11:21:15;;;;;;;;;;;;;;;;;;5075014;28;19919;-88
2022/03/25 11:23:40;;;;;;;;;;;;;;;;;;5073062;28;19918;-88
2022/03/25 11:26:08;;;;;;;;;;;;;;;;;;5076963;28;19908;-88
2022/03/25 11:28:33;;;;;;;;;;;;;;;;;;5076561;28;19999;-88
2022/03/25 11:30:58;;;;;;;;;;;;;;;;;;5072837;28;19943;-88
2022/03/25 11:33:23;;;;;;;;;;;;;;;;;;5056995;28;19954;-88
2022/03/25 11:35:49;;;;;;;;;;;;;;;;;;5073601;28;19955;-88
2022/03/25 11:38:15;;;;;;;;;;;;;;;;;;5073521;28;19909;-88
2022/03/25 11:40:40;;;;;;;;;;;;;;;;;;5075072;28;19923;-88
2022/03/25 11:43:07;;;;;;;;;;;;;;;;;;5073392;28;19913;-88
2022/03/25 11:45:35;;;;;;;;;;;;;;;;;;5073259;28;19916;-88
2022/03/25 11:48:00;;;;;;;;;;;;;;;;;;5074873;28;19909;-88
2022/03/25 11:50:25;;;;;;;;;;;;;;;;;;5074794;28;19916;-89
2022/03/25 11:52:51;;;;;;;;;;;;;;;;;;5070834;28;19926;-88
2022/03/25 11:55:16;;;;;;;;;;;;;;;;;;5096993;28;19919;-88
2022/03/25 11:57:41;;;;;;;;;;;;;;;;;;5067449;28;19935;-88
2022/03/25 12:00:06;;;;;;;;;;;;;;;;;;5076283;28;20405;-88
2022/03/25 12:02:31;;;;;;;;;;;;;;;;;;5085995;28;19965;-87
2022/03/25 12:04:57;;;;;;;;;;;;;;;;;;5058810;28;20288;-88
2022/03/25 12:07:22;;;;;;;;;;;;;;;;;;5077003;28;19913;-88
2022/03/25 12:09:47;;;;;;;;;;;;;;;;;;5076331;28;20288;-88
2022/03/25 12:12:12;;;;;;;;;;;;;;;;;;5057154;28;19909;-88
2022/03/25 12:14:37;;;;;;;;;;;;;;;;;;5096479;28;19999;-88
2022/03/25 12:17:02;;;;;;;;;;;;;;;;;;5096533;28;19907;-88
2022/03/25 12:19:31;;;;;;;;;;;;;;;;;;5078084;28;20283;-88
2022/03/25 12:21:56;;;;;;;;;;;;;;;;;;5076506;28;20368;-89
2022/03/25 12:24:21;;;;;;;;;;;;;;;;;;5076179;28;20415;-88
2022/03/25 12:26:46;;;;;;;;;;;;;;;;;;5072405;28;19908;-88
2022/03/25 12:29:11;;;;;;;;;;;;;;;;;;5055954;28;19912;-88
2022/03/25 12:31:36;;;;;;;;;;;;;;;;;;5082864;28;19931;-88
2022/03/25 12:34:02;;;;;;;;;;;;;;;;;;5074066;28;19912;-89
2022/03/25 12:36:27;;;;;;;;;;;;;;;;;;5089583;28;19942;-89
2022/03/25 12:38:52;;;;;;;;;;;;;;;;;;5074196;28;19938;-88
2022/03/25 12:41:17;;;;;;;;;;;;;;;;;;5055808;28;20364;-88
2022/03/25 12:43:42;;;;;;;;;;;;;;;;;;5055741;28;19978;-89
2022/03/25 12:46:07;;;;;;;;;;;;;;;;;;5055687;28;19916;-89
2022/03/25 12:48:32;;;;;;;;;;;;;;;;;;5055684;28;19908;-88
2022/03/25 12:50:58;;;;;;;;;;;;;;;;;;5055518;28;19908;-88
2022/03/25 12:53:23;;;;;;;;;;;;;;;;;;5055760;28;19915;-89
2022/03/25 12:55:48;;;;;;;;;;;;;;;;;;5055590;28;19919;-89
2022/03/25 12:58:13;;;;;;;;;;;;;;;;;;5073709;28;19987;-89
2022/03/25 13:00:38;;;;;;;;;;;;;;;;;;5055508;28;20007;-89
2022/03/25 13:03:03;;;;;;;;;;;;;;;;;;5055653;28;19912;-88
2022/03/25 13:05:28;;;;;;;;;;;;;;;;;;5055630;28;20003;-88
2022/03/25 13:07:54;;;;;;;;;;;;;;;;;;5055554;28;19916;-88
2022/03/25 13:10:19;;;;;;;;;;;;;;;;;;5055694;28;19912;-89
2022/03/25 13:12:44;;;;;;;;;;;;;;;;;;5073629;28;19959;-89
2022/03/25 13:15:09;;;;;;;;;;;;;;;;;;5055499;28;20368;-89
2022/03/25 13:17:35;;;;;;;;;;;;;;;;;;5055496;28;20011;-89
2022/03/25 13:20:00;;;;;;;;;;;;;;;;;;5055250;28;19935;-89
2022/03/25 13:22:26;;;;;;;;;;;;;;;;;;5055415;28;19908;-89
2022/03/25 13:24:51;;;;;;;;;;;;;;;;;;5055416;28;19908;-89
2022/03/25 13:27:16;;;;;;;;;;;;;;;;;;5055401;28;19970;-89
2022/03/25 13:29:41;;;;;;;;;;;;;;;;;;5055269;28;20314;-88
2022/03/25 13:32:06;;;;;;;;;;;;;;;;;;5055377;28;19965;-88
2022/03/25 13:34:33;;;;;;;;;;;;;;;;;;5055062;28;19920;-89
2022/03/25 13:36:58;;;;;;;;;;;;;;;;;;5054891;28;20003;-88
2022/03/25 13:39:23;;;;;;;;;;;;;;;;;;5055052;28;20005;-89
2022/03/25 13:41:48;;;;;;;;;;;;;;;;;;5055038;28;20063;-89
2022/03/25 13:44:13;;;;;;;;;;;;;;;;;;5054672;28;20542;-87
2022/03/25 13:46:38;;;;;;;;;;;;;;;;;;5052572;28;20011;-87
2022/03/25 13:49:04;;;;;;;;;;;;;;;;;;5052975;28;20379;-87
2022/03/25 13:51:29;;;;;;;;;;;;;;;;;;5058595;28;19912;-87
2022/03/25 13:53:55;;;;;;;;;;;;;;;;;;5096525;28;19934;-87
2022/03/25 13:56:21;;;;;;;;;;;;;;;;;;5078242;28;19908;-86
2022/03/25 13:58:46;;;;;;;;;;;;;;;;;;5094322;28;19916;-87
2022/03/25 14:01:11;;;;;;;;;;;;;;;;;;5076584;28;19920;-86
2022/03/25 14:03:36;;;;;;;;;;;;;;;;;;5079509;28;19912;-86
2022/03/25 14:06:01;;;;;;;;;;;;;;;;;;5073612;28;19920;-86
2022/03/25 14:08:26;;;;;;;;;;;;;;;;;;5067429;28;19956;-87
2022/03/25 14:10:52;;;;;;;;;;;;;;;;;;5100639;28;20343;-87
2022/03/25 14:13:17;;;;;;;;;;;;;;;;;;5088422;28;19944;-87
2022/03/25 14:15:42;;;;;;;;;;;;;;;;;;5077118;28;19919;-87
2022/03/25 14:18:07;;;;;;;;;;;;;;;;;;5077117;28;19908;-88
2022/03/25 14:20:32;;;;;;;;;;;;;;;;;;5077828;28;20053;-89
2022/03/25 14:22:58;;;;;;;;;;;;;;;;;;5087245;28;20326;-89
2022/03/25 14:25:24;;;;;;;;;;;;;;;;;;5078224;28;19912;-89
2022/03/25 14:27:49;;;;;;;;;;;;;;;;;;5078411;28;20027;-89
2022/03/25 14:30:14;;;;;;;;;;;;;;;;;;5077399;28;19912;-88
2022/03/25 14:32:40;;;;;;;;;;;;;;;;;;5077702;28;19954;-89
2022/03/25 14:35:05;;;;;;;;;;;;;;;;;;5077072;28;19942;-89
2022/03/25 14:37:30;;;;;;;;;;;;;;;;;;5077454;28;19944;-88
2022/03/25 14:39:55;;;;;;;;;;;;;;;;;;5077181;28;19916;-89
2022/03/25 14:42:20;;;;;;;;;;;;;;;;;;5077231;28;19916;-89
2022/03/25 14:44:46;;;;;;;;;;;;;;;;;;5077028;28;19908;-89
2022/03/25 14:47:11;;;;;;;;;;;;;;;;;;5095210;28;19938;-88
2022/03/25 14:49:36;;;;;;;;;;;;;;;;;;5077392;28;19915;-89
2022/03/25 14:52:04;;;;;;;;;;;;;;;;;;5077371;28;19934;-89
2022/03/25 14:54:29;;;;;;;;;;;;;;;;;;5077100;28;20367;-89
2022/03/25 14:56:54;;;;;;;;;;;;;;;;;;5076707;28;19916;-89
2022/03/25 14:59:20;;;;;;;;;;;;;;;;;;5077001;28;19908;-89
2022/03/25 15:01:45;;;;;;;;;;;;;;;;;;5076094;28;20344;-89
2022/03/25 15:04:11;;;;;;;;;;;;;;;;;;5076971;28;19908;-88
2022/03/25 15:06:36;;;;;;;;;;;;;;;;;;5094661;28;19955;-89
2022/03/25 15:09:01;;;;;;;;;;;;;;;;;;5094738;28;19915;-89
2022/03/25 15:11:26;;;;;;;;;;;;;;;;;;5077307;28;19912;-89
2022/03/25 15:13:52;;;;;;;;;;;;;;;;;;5076173;28;19916;-89
2022/03/25 15:16:18;;;;;;;;;;;;;;;;;;5065528;28;20454;-88
2022/03/25 15:18:43;;;;;;;;;;;;;;;;;;5108238;28;19947;-88
2022/03/25 15:21:08;;;;;;;;;;;;;;;;;;5077233;28;19958;-88
2022/03/25 15:23:33;;;;;;;;;;;;;;;;;;5080755;28;20003;-89
2022/03/25 15:25:58;;;;;;;;;;;;;;;;;;5076073;28;20363;-88
2022/03/25 15:28:26;;;;;;;;;;;;;;;;;;5069214;28;19912;-88
2022/03/25 15:36:19;;;;;;;;;;;;;;;;;;5074744;28;19923;-89
2022/03/25 15:38:44;;;;;;;;;;;;;;;;;;5056758;28;20007;-88
2022/03/25 15:41:09;;;;;;;;;;;;;;;;;;5068135;28;20026;-87
2022/03/25 15:43:34;;;;;;;;;;;;;;;;;;5094213;28;19948;-88
2022/03/25 15:46:00;;;;;;;;;;;;;;;;;;5094759;28;19916;-87
2022/03/25 15:48:25;;;;;;;;;;;;;;;;;;5060674;28;19913;-88
2022/03/25 15:50:50;;;;;;;;;;;;;;;;;;5093902;28;20348;-88
2022/03/25 15:53:15;;;;;;;;;;;;;;;;;;5060635;28;19909;-88
2022/03/25 15:55:40;;;;;;;;;;;;;;;;;;5074856;28;19912;-88
2022/03/25 15:58:05;;;;;;;;;;;;;;;;;;5077174;28;19939;-88
2022/03/25 16:00:30;;;;;;;;;;;;;;;;;;5073329;28;20459;-88
2022/03/25 16:02:55;;;;;;;;;;;;;;;;;;5056296;28;19917;-88
2022/03/25 16:05:21;;;;;;;;;;;;;;;;;;5068315;28;20326;-88
2022/03/25 16:07:46;;;;;;;;;;;;;;;;;;5063181;28;19912;-88
2022/03/25 16:10:11;;;;;;;;;;;;;;;;;;5076384;28;19917;-87
2022/03/25 16:12:36;;;;;;;;;;;;;;;;;;5083361;28;19959;-87
2022/03/25 16:15:02;;;;;;;;;;;;;;;;;;5083240;28;19920;-87
2022/03/25 16:17:27;;;;;;;;;;;;;;;;;;5065718;28;19939;-88
2022/03/25 16:19:52;;;;;;;;;;;;;;;;;;5067733;28;19916;-87
2022/03/25 16:22:17;;;;;;;;;;;;;;;;;;5070633;28;20263;-87
2022/03/25 16:24:44;;;;;;;;;;;;;;;;;;5066133;28;19920;-87
2022/03/25 16:27:09;;;;;;;;;;;;;;;;;;5067444;28;19960;-87
2022/03/25 16:29:34;;;;;;;;;;;;;;;;;;5069068;28;19917;-88
2022/03/25 16:32:01;;;;;;;;;;;;;;;;;;5097782;28;19916;-88
2022/03/25 16:34:26;;;;;;;;;;;;;;;;;;5076401;28;19912;-88
2022/03/25 16:36:52;;;;;;;;;;;;;;;;;;5073008;28;19927;-88
2022/03/25 16:39:17;;;;;;;;;;;;;;;;;;5070272;28;19955;-88
2022/03/25 16:41:42;;;;;;;;;;;;;;;;;;5074649;28;20267;-87
2022/03/25 16:44:07;;;;;;;;;;;;;;;;;;5097851;28;19923;-88
2022/03/25 16:46:33;;;;;;;;;;;;;;;;;;5084537;28;19917;-88